Wetterdaten: Woche 11.05.15 - 17.05.15 (KW20)
Datum Zeit Temp. A. Feuchte A. Luftdruck Regen Wind Richtung Sonnenschein ET UV Solar Taupunkt Windchill Windben Empfang
11.05.2015 00:00 10,5 C 80 % 1028,1 hPa 0,0 l/m 0,0 km/h (0 Bft) N 0,00 h 0,000 mm 0,0 UV-I 0 W/m 7,1 C 10,5 C 0,0 km/h (0 Bft) 0,00 %
11.05.2015 01:00 9,7 C 83 % 1028,2 hPa 0,0 l/m 0,0 km/h (0 Bft) N 0,00 h 0,000 mm 0,0 UV-I 0 W/m 6,9 C 9,7 C 0,0 km/h (0 Bft) 0,00 %
11.05.2015 02:00 8,9 C 88 % 1028,3 hPa 0,0 l/m 0,0 km/h (0 Bft) N 0,00 h 0,000 mm 0,0 UV-I 0 W/m 7,0 C 8,9 C 0,0 km/h (0 Bft) 0,00 %
11.05.2015 03:00 7,8 C 92 % 1028,8 hPa 0,0 l/m 0,0 km/h (0 Bft) N 0,00 h 0,000 mm 0,0 UV-I 0 W/m 6,6 C 7,8 C 0,0 km/h (0 Bft) 0,00 %
11.05.2015 04:00 7,0 C 95 % 1029,2 hPa 0,0 l/m 0,0 km/h (0 Bft) N 0,00 h 0,000 mm 0,0 UV-I 0 W/m 6,3 C 7,0 C 0,0 km/h (0 Bft) 0,00 %
11.05.2015 05:00 6,6 C 97 % 1029,6 hPa 0,0 l/m 0,0 km/h (0 Bft) N 0,25 h 0,000 mm 0,0 UV-I 11 W/m 6,1 C 6,6 C 0,0 km/h (0 Bft) 0,00 %
11.05.2015 06:00 9,1 C 88 % 1029,3 hPa 0,0 l/m 0,1 km/h (0 Bft) O-SO 1,00 h 0,000 mm 1,0 UV-I 197 W/m 7,1 C 9,1 C 1,0 km/h (0 Bft) 0,00 %
11.05.2015 07:00 10,4 C 78 % 1029,4 hPa 0,0 l/m 2,6 km/h (1 Bft) O 1,00 h 0,000 mm 1,0 UV-I 327 W/m 6,7 C 10,4 C 4,9 km/h (1 Bft) 0,00 %
11.05.2015 08:00 12,4 C 69 % 1028,9 hPa 0,0 l/m 4,4 km/h (1 Bft) O 1,00 h 0,000 mm 2,0 UV-I 379 W/m 6,7 C 12,3 C 6,9 km/h (2 Bft) 0,00 %
11.05.2015 09:00 13,9 C 61 % 1028,5 hPa 0,0 l/m 4,5 km/h (1 Bft) O-NO 1,00 h 0,000 mm 3,0 UV-I 446 W/m 6,6 C 13,3 C 7,9 km/h (2 Bft) 0,00 %
11.05.2015 10:00 15,3 C 55 % 1028,1 hPa 0,0 l/m 6,4 km/h (2 Bft) O-SO 1,00 h 0,000 mm 4,0 UV-I 559 W/m 6,4 C 14,8 C 8,9 km/h (2 Bft) 0,00 %
11.05.2015 11:00 16,6 C 51 % 1027,6 hPa 0,0 l/m 4,4 km/h (1 Bft) O 1,00 h 0,000 mm 5,3 UV-I 656 W/m 6,3 C 16,6 C 6,9 km/h (2 Bft) 0,00 %
11.05.2015 12:00 18,0 C 46 % 1027,1 hPa 0,0 l/m 3,6 km/h (1 Bft) O-NO 1,00 h 0,000 mm 6,0 UV-I 729 W/m 6,2 C 17,9 C 6,9 km/h (2 Bft) 0,00 %
11.05.2015 13:00 19,1 C 43 % 1026,3 hPa 0,0 l/m 2,7 km/h (1 Bft) SO 1,00 h 0,000 mm 6,0 UV-I 807 W/m 6,2 C 19,1 C 5,9 km/h (2 Bft) 0,00 %
11.05.2015 14:00 20,4 C 37 % 1025,2 hPa 0,0 l/m 4,1 km/h (1 Bft) O 1,00 h 0,000 mm 5,0 UV-I 850 W/m 5,2 C 20,4 C 7,9 km/h (2 Bft) 0,00 %
11.05.2015 15:00 21,2 C 29 % 1024,3 hPa 0,0 l/m 2,9 km/h (1 Bft) O 1,00 h 0,000 mm 3,0 UV-I 773 W/m 2,3 C 21,2 C 4,9 km/h (1 Bft) 0,00 %
11.05.2015 16:00 21,3 C 26 % 1023,7 hPa 0,0 l/m 7,8 km/h (2 Bft) O-SO 1,00 h 0,000 mm 2,0 UV-I 600 W/m 0,7 C 20,4 C 9,9 km/h (2 Bft) 0,00 %
11.05.2015 17:00 20,9 C 28 % 1023,2 hPa 0,0 l/m 3,0 km/h (1 Bft) O 1,00 h 0,000 mm 1,0 UV-I 607 W/m 1,7 C 20,7 C 6,0 km/h (2 Bft) 0,00 %
11.05.2015 18:00 20,3 C 30 % 1023,0 hPa 0,0 l/m 0,9 km/h (0 Bft) SO 1,00 h 0,000 mm 1,0 UV-I 422 W/m 2,3 C 20,3 C 2,0 km/h (1 Bft) 0,00 %
11.05.2015 19:00 19,1 C 39 % 1022,8 hPa 0,0 l/m 1,6 km/h (1 Bft) O-SO 1,00 h 0,000 mm 0,0 UV-I 235 W/m 4,7 C 19,1 C 3,0 km/h (1 Bft) 0,00 %
11.05.2015 20:00 16,4 C 48 % 1023,3 hPa 0,0 l/m 4,9 km/h (1 Bft) O-SO 0,50 h 0,000 mm 0,0 UV-I 12 W/m 5,2 C 16,1 C 8,9 km/h (2 Bft) 0,00 %
11.05.2015 21:00 14,9 C 52 % 1023,8 hPa 0,0 l/m 5,7 km/h (1 Bft) O-SO 0,00 h 0,000 mm 0,0 UV-I 0 W/m 5,1 C 14,4 C 7,9 km/h (2 Bft) 0,00 %
11.05.2015 22:00 13,5 C 56 % 1024,2 hPa 0,0 l/m 1,1 km/h (1 Bft) O-SO 0,00 h 0,000 mm 0,0 UV-I 0 W/m 4,8 C 13,5 C 4,0 km/h (1 Bft) 0,00 %
11.05.2015 23:00 12,2 C 59 % 1024,4 hPa 0,0 l/m 3,1 km/h (1 Bft) O 0,00 h 0,000 mm 0,0 UV-I 0 W/m 4,5 C 12,2 C 6,6 km/h (2 Bft) 0,00 %
12.05.2015 00:00 11,4 C 61 % 1024,6 hPa 0,0 l/m 1,0 km/h (0 Bft) SO 0,00 h 0,000 mm 0,0 UV-I 0 W/m 4,2 C 11,4 C 1,0 km/h (0 Bft) 0,00 %
12.05.2015 01:00 10,4 C 64 % 1024,5 hPa 0,0 l/m 0,0 km/h (0 Bft) N 0,00 h 0,000 mm 0,0 UV-I 0 W/m 3,8 C 10,4 C 0,0 km/h (0 Bft) 0,00 %
12.05.2015 02:00 8,7 C 72 % 1024,6 hPa 0,0 l/m 0,0 km/h (0 Bft) N 0,00 h 0,000 mm 0,0 UV-I 0 W/m 4,0 C 8,7 C 0,0 km/h (0 Bft) 0,00 %
12.05.2015 03:00 7,8 C 76 % 1024,2 hPa 0,0 l/m 0,0 km/h (0 Bft) N 0,00 h 0,000 mm 0,0 UV-I 0 W/m 3,8 C 7,8 C 0,0 km/h (0 Bft) 0,00 %
12.05.2015 04:00 6,5 C 83 % 1024,1 hPa 0,0 l/m 0,0 km/h (0 Bft) N 0,00 h 0,000 mm 0,0 UV-I 0 W/m 3,8 C 6,5 C 0,0 km/h (0 Bft) 0,00 %
12.05.2015 05:00 5,9 C 87 % 1024,4 hPa 0,0 l/m 0,0 km/h (0 Bft) N 0,25 h 0,000 mm 0,0 UV-I 25 W/m 3,9 C 5,9 C 0,0 km/h (0 Bft) 0,00 %
12.05.2015 06:00 9,9 C 73 % 1023,6 hPa 0,0 l/m 0,0 km/h (0 Bft) O-SO 1,00 h 0,000 mm 1,0 UV-I 211 W/m 5,2 C 9,9 C 0,0 km/h (0 Bft) 0,00 %
12.05.2015 07:00 12,3 C 62 % 1023,3 hPa 0,0 l/m 0,3 km/h (0 Bft) N 1,00 h 0,000 mm 1,0 UV-I 363 W/m 5,2 C 12,3 C 1,0 km/h (0 Bft) 0,00 %
12.05.2015 08:00 13,6 C 61 % 1023,1 hPa 0,0 l/m 0,0 km/h (0 Bft) SO 0,25 h 0,000 mm 0,0 UV-I 0 W/m 6,2 C 13,6 C 0,0 km/h (0 Bft) 0,00 %
12.05.2015 14:00 23,8 C 43 % 1018,5 hPa 0,0 l/m 4,8 km/h (1 Bft) O-SO 1,75 h 0,000 mm 4,3 UV-I 799 W/m 10,4 C 23,7 C 7,9 km/h (2 Bft) 0,00 %
12.05.2015 15:00 24,7 C 39 % 1017,9 hPa 0,0 l/m 3,3 km/h (1 Bft) O-NO 1,00 h 0,000 mm 3,3 UV-I 638 W/m 9,8 C 24,6 C 5,0 km/h (1 Bft) 0,00 %
12.05.2015 16:00 24,7 C 40 % 1017,2 hPa 0,0 l/m 2,8 km/h (1 Bft) O 1,00 h 0,000 mm 2,0 UV-I 625 W/m 10,2 C 24,7 C 4,9 km/h (1 Bft) 0,00 %
12.05.2015 17:00 24,9 C 41 % 1016,5 hPa 0,0 l/m 0,3 km/h (0 Bft) N 1,00 h 0,000 mm 1,7 UV-I 557 W/m 10,5 C 24,9 C 2,0 km/h (1 Bft) 0,00 %
12.05.2015 18:00 24,5 C 43 % 1015,8 hPa 0,0 l/m 2,4 km/h (1 Bft) O 1,00 h 0,000 mm 1,0 UV-I 355 W/m 11,0 C 24,5 C 4,0 km/h (1 Bft) 0,00 %
12.05.2015 19:00 23,8 C 48 % 1015,4 hPa 0,0 l/m 0,0 km/h (0 Bft) N 0,75 h 0,000 mm 1,0 UV-I 89 W/m 12,1 C 23,8 C 0,0 km/h (0 Bft) 0,00 %
12.05.2015 20:00 21,1 C 56 % 1015,3 hPa 0,0 l/m 0,0 km/h (0 Bft) N 0,00 h 0,000 mm 0,0 UV-I 6 W/m 11,9 C 21,1 C 0,0 km/h (0 Bft) 0,00 %
12.05.2015 21:00 18,6 C 64 % 1015,6 hPa 0,0 l/m 0,0 km/h (0 Bft) N 0,00 h 0,000 mm 0,0 UV-I 0 W/m 11,7 C 18,6 C 0,0 km/h (0 Bft) 0,00 %
12.05.2015 22:00 17,0 C 71 % 1015,8 hPa 0,0 l/m 0,0 km/h (0 Bft) N 0,00 h 0,000 mm 0,0 UV-I 0 W/m 11,6 C 17,0 C 0,0 km/h (0 Bft) 0,00 %
12.05.2015 23:00 15,6 C 80 % 1015,8 hPa 0,0 l/m 0,0 km/h (0 Bft) N 0,00 h 0,000 mm 0,0 UV-I 0 W/m 12,1 C 15,6 C 0,0 km/h (0 Bft) 0,00 %
13.05.2015 00:00 14,6 C 82 % 1015,9 hPa 0,0 l/m 0,0 km/h (0 Bft) N 0,00 h 0,000 mm 0,0 UV-I 0 W/m 11,7 C 14,6 C 0,0 km/h (0 Bft) 0,00 %
13.05.2015 01:00 15,4 C 74 % 1015,5 hPa 0,0 l/m 0,0 km/h (0 Bft) N 0,00 h 0,000 mm 0,0 UV-I 0 W/m 10,8 C 15,4 C 0,0 km/h (0 Bft) 0,00 %
13.05.2015 02:00 16,6 C 65 % 1015,4 hPa 0,0 l/m 0,9 km/h (0 Bft) W-SW 0,00 h 0,000 mm 0,0 UV-I 0 W/m 9,9 C 16,6 C 2,0 km/h (1 Bft) 0,00 %
13.05.2015 03:00 17,6 C 59 % 1016,2 hPa 0,0 l/m 2,2 km/h (1 Bft) W-SW 0,00 h 0,000 mm 0,0 UV-I 0 W/m 9,4 C 17,6 C 5,0 km/h (1 Bft) 0,00 %
13.05.2015 04:00 18,0 C 64 % 1017,0 hPa 0,0 l/m 3,9 km/h (1 Bft) NW 0,00 h 0,000 mm 0,0 UV-I 0 W/m 10,9 C 17,9 C 7,9 km/h (2 Bft) 0,00 %
13.05.2015 05:00 17,8 C 68 % 1017,8 hPa 0,0 l/m 2,8 km/h (1 Bft) W-SW 0,00 h 0,000 mm 0,0 UV-I 2 W/m 11,8 C 17,8 C 4,9 km/h (1 Bft) 0,00 %
13.05.2015 06:00 17,5 C 73 % 1018,2 hPa 0,0 l/m 0,4 km/h (0 Bft) SW 0,00 h 0,000 mm 0,0 UV-I 38 W/m 12,5 C 17,5 C 1,0 km/h (0 Bft) 0,00 %
13.05.2015 07:00 17,5 C 73 % 1018,3 hPa 0,0 l/m 4,4 km/h (1 Bft) W-SW 0,00 h 0,000 mm 1,0 UV-I 69 W/m 12,6 C 17,5 C 7,9 km/h (2 Bft) 0,00 %
13.05.2015 08:00 18,0 C 74 % 1018,6 hPa 0,0 l/m 0,1 km/h (0 Bft) N 0,00 h 0,000 mm 1,3 UV-I 150 W/m 13,4 C 18,0 C 1,0 km/h (0 Bft) 0,00 %
13.05.2015 09:00 18,6 C 68 % 1018,8 hPa 0,0 l/m 1,3 km/h (1 Bft) SW 0,00 h 0,000 mm 1,3 UV-I 228 W/m 12,5 C 18,6 C 2,0 km/h (1 Bft) 0,00 %
13.05.2015 10:00 17,3 C 68 % 1019,2 hPa 0,0 l/m 0,1 km/h (0 Bft) N 0,00 h 0,000 mm 1,3 UV-I 166 W/m 11,3 C 17,3 C 1,0 km/h (0 Bft) 0,00 %
13.05.2015 11:00 19,6 C 58 % 1018,4 hPa 0,0 l/m 0,8 km/h (0 Bft) SW 0,25 h 0,000 mm 3,3 UV-I 470 W/m 11,1 C 19,6 C 2,0 km/h (1 Bft) 0,00 %
13.05.2015 12:00 20,8 C 50 % 1017,4 hPa 0,0 l/m 0,3 km/h (0 Bft) N 0,25 h 0,000 mm 3,3 UV-I 419 W/m 10,0 C 20,8 C 1,0 km/h (0 Bft) 0,00 %
13.05.2015 13:00 22,7 C 48 % 1016,1 hPa 0,0 l/m 1,3 km/h (1 Bft) W 1,00 h 0,000 mm 5,3 UV-I 904 W/m 11,0 C 22,7 C 4,0 km/h (1 Bft) 0,00 %
13.05.2015 14:00 22,5 C 49 % 1014,8 hPa 0,0 l/m 1,3 km/h (1 Bft) N-NO 1,00 h 0,000 mm 4,7 UV-I 782 W/m 11,3 C 22,5 C 2,0 km/h (1 Bft) 0,00 %
13.05.2015 15:00 22,6 C 52 % 1013,8 hPa 0,0 l/m 1,7 km/h (1 Bft) NO 1,00 h 0,000 mm 2,7 UV-I 802 W/m 12,1 C 22,6 C 4,0 km/h (1 Bft) 0,00 %
13.05.2015 16:00 24,8 C 43 % 1011,9 hPa 0,0 l/m 1,0 km/h (0 Bft) W 1,00 h 0,000 mm 1,7 UV-I 719 W/m 11,5 C 24,8 C 3,0 km/h (1 Bft) 0,00 %
13.05.2015 17:00 22,6 C 53 % 1011,5 hPa 0,0 l/m 0,2 km/h (0 Bft) W-NW 0,25 h 0,000 mm 1,0 UV-I 173 W/m 12,5 C 22,6 C 1,0 km/h (0 Bft) 0,00 %
13.05.2015 18:00 23,7 C 48 % 1010,4 hPa 0,0 l/m 2,0 km/h (1 Bft) N 1,00 h 0,000 mm 1,0 UV-I 523 W/m 12,0 C 23,7 C 4,0 km/h (1 Bft) 0,00 %
13.05.2015 19:00 21,7 C 57 % 1009,9 hPa 0,0 l/m 0,0 km/h (0 Bft) N 1,00 h 0,000 mm 1,0 UV-I 172 W/m 12,7 C 21,7 C 0,0 km/h (0 Bft) 0,00 %
13.05.2015 20:00 18,8 C 67 % 1009,9 hPa 0,0 l/m 0,0 km/h (0 Bft) N 0,25 h 0,000 mm 0,0 UV-I 9 W/m 12,4 C 18,8 C 0,0 km/h (0 Bft) 0,00 %
13.05.2015 21:00 16,7 C 75 % 1009,2 hPa 0,0 l/m 0,0 km/h (0 Bft) S 0,00 h 0,000 mm 0,0 UV-I 0 W/m 12,2 C 16,7 C 0,0 km/h (0 Bft) 0,00 %
13.05.2015 22:00 15,6 C 80 % 1008,4 hPa 0,0 l/m 0,3 km/h (0 Bft) N 0,00 h 0,000 mm 0,0 UV-I 0 W/m 12,1 C 15,6 C 1,0 km/h (0 Bft) 0,00 %
13.05.2015 23:00 14,8 C 83 % 1007,5 hPa 0,0 l/m 0,0 km/h (0 Bft) N 0,00 h 0,000 mm 0,0 UV-I 0 W/m 12,0 C 14,8 C 0,0 km/h (0 Bft) 0,00 %
14.05.2015 00:00 14,6 C 87 % 1007,7 hPa 15,9 l/m 2,0 km/h (1 Bft) NO 0,00 h 0,000 mm 0,0 UV-I 0 W/m 12,4 C 14,4 C 3,0 km/h (1 Bft) 0,00 %
14.05.2015 01:00 12,9 C 94 % 1009,6 hPa 5,7 l/m 0,3 km/h (0 Bft) N 0,00 h 0,000 mm 0,0 UV-I 0 W/m 11,9 C 12,9 C 1,0 km/h (0 Bft) 0,00 %
14.05.2015 02:00 12,5 C 96 % 1008,2 hPa 0,0 l/m 0,1 km/h (0 Bft) N 0,00 h 0,000 mm 0,0 UV-I 0 W/m 11,9 C 12,5 C 1,0 km/h (0 Bft) 0,00 %
14.05.2015 03:00 12,3 C 97 % 1008,0 hPa 1,8 l/m 0,2 km/h (0 Bft) N 0,00 h 0,000 mm 0,0 UV-I 0 W/m 11,8 C 12,3 C 1,0 km/h (0 Bft) 0,00 %
14.05.2015 04:00 12,3 C 97 % 1007,3 hPa 0,3 l/m 0,0 km/h (0 Bft) N 0,00 h 0,000 mm 0,0 UV-I 0 W/m 11,8 C 12,3 C 0,0 km/h (0 Bft) 0,00 %
14.05.2015 05:00 12,4 C 98 % 1008,0 hPa 0,6 l/m 1,9 km/h (1 Bft) S-SW 0,00 h 0,000 mm 0,0 UV-I 1 W/m 12,1 C 12,4 C 5,9 km/h (2 Bft) 0,00 %
14.05.2015 06:00 13,1 C 97 % 1008,5 hPa 0,6 l/m 1,5 km/h (1 Bft) O 0,00 h 0,000 mm 1,0 UV-I 28 W/m 12,6 C 13,1 C 4,0 km/h (1 Bft) 0,00 %
14.05.2015 07:00 14,4 C 91 % 1008,9 hPa 0,0 l/m 3,5 km/h (1 Bft) SW 0,75 h 0,000 mm 1,3 UV-I 267 W/m 13,0 C 14,4 C 6,9 km/h (2 Bft) 0,00 %
14.05.2015 08:00 15,8 C 81 % 1009,1 hPa 0,0 l/m 4,3 km/h (1 Bft) SW 1,00 h 0,000 mm 2,0 UV-I 483 W/m 12,4 C 15,3 C 7,9 km/h (2 Bft) 0,00 %
14.05.2015 09:00 17,3 C 72 % 1009,2 hPa 0,0 l/m 5,9 km/h (2 Bft) NW 1,00 h 0,000 mm 3,0 UV-I 556 W/m 12,2 C 16,5 C 10,9 km/h (2 Bft) 0,00 %
14.05.2015 10:00 16,8 C 70 % 1009,0 hPa 0,0 l/m 5,3 km/h (1 Bft) W-SW 0,00 h 0,000 mm 1,3 UV-I 229 W/m 11,2 C 16,5 C 9,9 km/h (2 Bft) 0,00 %
14.05.2015 11:00 16,3 C 71 % 1009,1 hPa 0,0 l/m 1,5 km/h (1 Bft) W 0,00 h 0,000 mm 1,7 UV-I 166 W/m 10,9 C 16,3 C 3,0 km/h (1 Bft) 0,00 %
14.05.2015 12:00 18,7 C 60 % 1008,8 hPa 0,0 l/m 1,3 km/h (1 Bft) SW 0,25 h 0,000 mm 1,7 UV-I 354 W/m 10,8 C 18,7 C 4,0 km/h (1 Bft) 0,00 %
14.05.2015 13:00 17,4 C 63 % 1008,9 hPa 0,0 l/m 4,2 km/h (1 Bft) NO 0,00 h 0,000 mm 2,0 UV-I 195 W/m 10,1 C 17,2 C 7,9 km/h (2 Bft) 0,00 %
14.05.2015 14:00 18,1 C 62 % 1008,5 hPa 0,0 l/m 4,5 km/h (1 Bft) S 0,25 h 0,000 mm 2,0 UV-I 355 W/m 10,7 C 17,6 C 6,9 km/h (2 Bft) 0,00 %
14.05.2015 15:00 16,8 C 67 % 1008,4 hPa 0,0 l/m 4,5 km/h (1 Bft) W-SW 0,00 h 0,000 mm 1,3 UV-I 190 W/m 10,5 C 16,6 C 7,9 km/h (2 Bft) 0,00 %
14.05.2015 16:00 17,4 C 64 % 1008,2 hPa 0,0 l/m 4,3 km/h (1 Bft) SW 0,00 h 0,000 mm 1,3 UV-I 198 W/m 10,5 C 17,2 C 7,9 km/h (2 Bft) 0,00 %
14.05.2015 17:00 17,0 C 66 % 1008,1 hPa 0,0 l/m 1,8 km/h (1 Bft) S-SW 0,25 h 0,000 mm 1,3 UV-I 230 W/m 10,5 C 17,0 C 5,0 km/h (1 Bft) 0,00 %
14.05.2015 18:00 16,9 C 66 % 1008,0 hPa 0,0 l/m 1,0 km/h (0 Bft) S 0,75 h 0,000 mm 1,0 UV-I 218 W/m 10,4 C 16,9 C 3,0 km/h (1 Bft) 0,00 %
14.05.2015 19:00 15,9 C 70 % 1008,4 hPa 0,0 l/m 0,0 km/h (0 Bft) N 0,00 h 0,000 mm 0,0 UV-I 62 W/m 10,4 C 15,9 C 0,0 km/h (0 Bft) 0,00 %
14.05.2015 20:00 14,9 C 75 % 1008,5 hPa 0,0 l/m 0,0 km/h (0 Bft) N 0,00 h 0,000 mm 0,0 UV-I 6 W/m 10,6 C 14,9 C 0,0 km/h (0 Bft) 0,00 %
14.05.2015 21:00 14,1 C 78 % 1008,9 hPa 0,0 l/m 0,0 km/h (0 Bft) N 0,00 h 0,000 mm 0,0 UV-I 0 W/m 10,2 C 14,1 C 0,0 km/h (0 Bft) 0,00 %
14.05.2015 22:00 12,8 C 83 % 1008,8 hPa 0,0 l/m 0,0 km/h (0 Bft) N 0,00 h 0,000 mm 0,0 UV-I 0 W/m 9,9 C 12,8 C 0,0 km/h (0 Bft) 0,00 %
14.05.2015 23:00 12,3 C 86 % 1008,8 hPa 0,0 l/m 0,0 km/h (0 Bft) N 0,00 h 0,000 mm 0,0 UV-I 0 W/m 9,9 C 12,3 C 0,0 km/h (0 Bft) 0,00 %
15.05.2015 00:00 12,1 C 88 % 1009,1 hPa 0,0 l/m 0,0 km/h (0 Bft) N 0,00 h 0,000 mm 0,0 UV-I 0 W/m 10,1 C 12,1 C 0,0 km/h (0 Bft) 0,00 %
15.05.2015 01:00 11,9 C 89 % 1008,4 hPa 0,0 l/m 0,7 km/h (0 Bft) O-SO 0,00 h 0,000 mm 0,0 UV-I 0 W/m 10,2 C 11,9 C 3,0 km/h (1 Bft) 0,00 %
15.05.2015 02:00 11,6 C 88 % 1008,0 hPa 0,0 l/m 2,7 km/h (1 Bft) O-NO 0,00 h 0,000 mm 0,0 UV-I 0 W/m 9,6 C 11,6 C 5,0 km/h (1 Bft) 0,00 %
15.05.2015 03:00 11,3 C 86 % 1007,9 hPa 0,0 l/m 7,4 km/h (2 Bft) O-SO 0,00 h 0,000 mm 0,0 UV-I 0 W/m 8,9 C 10,6 C 9,9 km/h (2 Bft) 0,00 %
15.05.2015 04:00 11,1 C 78 % 1008,1 hPa 0,0 l/m 6,6 km/h (2 Bft) O-NO 0,00 h 0,000 mm 0,0 UV-I 0 W/m 7,3 C 10,2 C 11,9 km/h (2 Bft) 0,00 %
15.05.2015 05:00 10,8 C 79 % 1008,0 hPa 0,0 l/m 6,1 km/h (2 Bft) O-SO 0,00 h 0,000 mm 0,0 UV-I 0 W/m 7,3 C 10,2 C 7,9 km/h (2 Bft) 0,00 %
15.05.2015 06:00 10,8 C 79 % 1008,4 hPa 0,0 l/m 6,1 km/h (2 Bft) O 0,00 h 0,000 mm 0,0 UV-I 39 W/m 7,4 C 10,6 C 8,9 km/h (2 Bft) 0,00 %
15.05.2015 07:00 10,9 C 80 % 1009,1 hPa 0,0 l/m 2,9 km/h (1 Bft) O 0,00 h 0,000 mm 1,0 UV-I 72 W/m 7,6 C 10,9 C 5,0 km/h (1 Bft) 0,00 %
15.05.2015 08:00 11,3 C 78 % 1009,1 hPa 0,0 l/m 4,1 km/h (1 Bft) NO 0,00 h 0,000 mm 1,0 UV-I 122 W/m 7,6 C 11,1 C 7,9 km/h (2 Bft) 0,00 %
15.05.2015 09:00 11,5 C 76 % 1009,3 hPa 0,0 l/m 4,2 km/h (1 Bft) O 0,00 h 0,000 mm 1,0 UV-I 167 W/m 7,4 C 11,2 C 7,9 km/h (2 Bft) 0,00 %
15.05.2015 10:00 12,1 C 74 % 1009,9 hPa 0,0 l/m 2,3 km/h (1 Bft) O 0,00 h 0,000 mm 2,0 UV-I 246 W/m 7,5 C 12,1 C 4,0 km/h (1 Bft) 0,00 %
15.05.2015 11:00 13,3 C 71 % 1010,3 hPa 0,0 l/m 5,4 km/h (1 Bft) O-SO 0,00 h 0,000 mm 2,7 UV-I 369 W/m 8,1 C 12,9 C 7,9 km/h (2 Bft) 0,00 %
15.05.2015 12:00 14,2 C 69 % 1010,5 hPa 0,0 l/m 8,3 km/h (2 Bft) O-SO 0,00 h 0,000 mm 3,0 UV-I 386 W/m 8,5 C 13,0 C 11,9 km/h (2 Bft) 0,00 %
15.05.2015 13:00 14,9 C 68 % 1010,5 hPa 0,0 l/m 4,1 km/h (1 Bft) O-SO 0,25 h 0,000 mm 2,7 UV-I 452 W/m 9,0 C 14,8 C 5,9 km/h (2 Bft) 0,00 %
15.05.2015 14:00 14,9 C 69 % 1010,8 hPa 0,0 l/m 7,9 km/h (2 Bft) O-SO 0,00 h 0,000 mm 1,7 UV-I 342 W/m 9,3 C 13,8 C 10,9 km/h (2 Bft) 0,00 %
15.05.2015 15:00 15,0 C 69 % 1010,9 hPa 0,0 l/m 7,4 km/h (2 Bft) O-NO 0,00 h 0,000 mm 2,0 UV-I 274 W/m 9,4 C 14,1 C 9,9 km/h (2 Bft) 0,00 %
15.05.2015 16:00 15,3 C 68 % 1011,2 hPa 0,0 l/m 6,5 km/h (2 Bft) O-SO 0,00 h 0,000 mm 2,0 UV-I 293 W/m 9,5 C 14,3 C 9,9 km/h (2 Bft) 0,00 %
15.05.2015 17:00 15,1 C 69 % 1011,8 hPa 0,0 l/m 6,8 km/h (2 Bft) SO 0,00 h 0,000 mm 1,0 UV-I 176 W/m 9,5 C 14,3 C 9,9 km/h (2 Bft) 0,00 %
15.05.2015 18:00 14,5 C 72 % 1012,5 hPa 0,0 l/m 3,6 km/h (1 Bft) O 0,00 h 0,000 mm 0,0 UV-I 59 W/m 9,6 C 13,8 C 5,9 km/h (2 Bft) 0,00 %
15.05.2015 19:00 13,6 C 75 % 1013,3 hPa 0,0 l/m 2,6 km/h (1 Bft) O-SO 0,00 h 0,000 mm 0,0 UV-I 19 W/m 9,2 C 13,6 C 4,0 km/h (1 Bft) 0,00 %
15.05.2015 20:00 12,8 C 76 % 1014,1 hPa 0,0 l/m 1,0 km/h (0 Bft) SO 0,00 h 0,000 mm 0,0 UV-I 0 W/m 8,7 C 12,8 C 3,0 km/h (1 Bft) 0,00 %
15.05.2015 21:00 12,3 C 79 % 1015,4 hPa 0,0 l/m 0,0 km/h (0 Bft) N 0,00 h 0,000 mm 0,0 UV-I 0 W/m 8,8 C 12,3 C 0,0 km/h (0 Bft) 0,00 %
15.05.2015 22:00 11,6 C 84 % 1016,5 hPa 0,0 l/m 0,0 km/h (0 Bft) N 0,00 h 0,000 mm 0,0 UV-I 0 W/m 8,9 C 11,6 C 0,0 km/h (0 Bft) 0,00 %
15.05.2015 23:00 11,5 C 81 % 1017,0 hPa 0,0 l/m 1,0 km/h (0 Bft) SO 0,00 h 0,000 mm 0,0 UV-I 0 W/m 8,3 C 11,5 C 2,6 km/h (1 Bft) 0,00 %
16.05.2015 00:00 11,5 C 80 % 1017,4 hPa 0,0 l/m 0,6 km/h (0 Bft) SO 0,00 h 0,000 mm 0,0 UV-I 0 W/m 8,2 C 11,5 C 3,0 km/h (1 Bft) 0,00 %
16.05.2015 01:00 11,1 C 85 % 1017,9 hPa 0,0 l/m 0,0 km/h (0 Bft) N 0,00 h 0,000 mm 0,0 UV-I 0 W/m 8,7 C 11,1 C 0,0 km/h (0 Bft) 0,00 %
16.05.2015 02:00 10,8 C 88 % 1018,3 hPa 0,0 l/m 0,0 km/h (0 Bft) N 0,00 h 0,000 mm 0,0 UV-I 0 W/m 8,8 C 10,8 C 0,0 km/h (0 Bft) 0,00 %
16.05.2015 03:00 10,8 C 89 % 1018,3 hPa 0,0 l/m 0,0 km/h (0 Bft) N 0,00 h 0,000 mm 0,0 UV-I 0 W/m 9,0 C 10,8 C 0,0 km/h (0 Bft) 0,00 %
16.05.2015 04:00 10,8 C 90 % 1018,6 hPa 0,0 l/m 0,0 km/h (0 Bft) N 0,00 h 0,000 mm 0,0 UV-I 0 W/m 9,2 C 10,8 C 0,0 km/h (0 Bft) 0,00 %
16.05.2015 05:00 10,3 C 92 % 1019,1 hPa 0,0 l/m 0,0 km/h (0 Bft) N 0,00 h 0,000 mm 0,0 UV-I 12 W/m 9,1 C 10,3 C 0,0 km/h (0 Bft) 0,00 %
16.05.2015 06:00 10,9 C 89 % 1019,9 hPa 0,0 l/m 0,0 km/h (0 Bft) N 1,00 h 0,000 mm 1,0 UV-I 176 W/m 9,1 C 10,9 C 0,0 km/h (0 Bft) 0,00 %
16.05.2015 07:00 13,3 C 73 % 1020,6 hPa 0,0 l/m 0,0 km/h (0 Bft) N 1,00 h 0,000 mm 1,0 UV-I 296 W/m 8,6 C 13,3 C 0,0 km/h (0 Bft) 0,00 %
16.05.2015 08:00 16,1 C 63 % 1020,8 hPa 0,0 l/m 0,0 km/h (0 Bft) N 1,00 h 0,000 mm 2,0 UV-I 428 W/m 9,0 C 16,1 C 0,0 km/h (0 Bft) 0,00 %
16.05.2015 09:00 16,6 C 61 % 1021,0 hPa 0,0 l/m 0,0 km/h (0 Bft) W-SW 0,50 h 0,000 mm 3,0 UV-I 385 W/m 9,1 C 16,6 C 0,0 km/h (0 Bft) 0,00 %
16.05.2015 10:00 18,1 C 60 % 1020,8 hPa 0,0 l/m 2,1 km/h (1 Bft) O-SO 1,00 h 0,000 mm 4,0 UV-I 639 W/m 10,1 C 18,1 C 4,0 km/h (1 Bft) 0,00 %
16.05.2015 11:00 19,5 C 56 % 1020,7 hPa 0,0 l/m 0,6 km/h (0 Bft) N 1,00 h 0,000 mm 5,0 UV-I 741 W/m 10,4 C 19,5 C 2,0 km/h (1 Bft) 0,00 %
16.05.2015 12:00 19,8 C 55 % 1020,5 hPa 0,0 l/m 0,0 km/h (0 Bft) N 1,00 h 0,000 mm 5,3 UV-I 733 W/m 10,3 C 19,8 C 0,0 km/h (0 Bft) 0,00 %
16.05.2015 13:00 20,7 C 50 % 1019,8 hPa 0,0 l/m 1,4 km/h (1 Bft) S-SW 1,00 h 0,000 mm 5,7 UV-I 796 W/m 9,8 C 20,7 C 3,0 km/h (1 Bft) 0,00 %
16.05.2015 14:00 20,6 C 53 % 1019,5 hPa 0,0 l/m 0,6 km/h (0 Bft) SW 0,75 h 0,000 mm 3,7 UV-I 645 W/m 10,6 C 20,6 C 2,0 km/h (1 Bft) 0,00 %
16.05.2015 15:00 22,3 C 46 % 1018,8 hPa 0,0 l/m 1,8 km/h (1 Bft) S-SW 1,00 h 0,000 mm 3,3 UV-I 731 W/m 10,2 C 22,2 C 2,0 km/h (1 Bft) 0,00 %
16.05.2015 16:00 22,4 C 42 % 1018,6 hPa 0,0 l/m 1,3 km/h (1 Bft) W-NW 1,00 h 0,000 mm 2,0 UV-I 731 W/m 8,8 C 22,4 C 2,0 km/h (1 Bft) 0,00 %
16.05.2015 17:00 21,9 C 40 % 1018,7 hPa 0,0 l/m 0,6 km/h (0 Bft) SW 1,00 h 0,000 mm 2,0 UV-I 605 W/m 7,8 C 21,9 C 2,0 km/h (1 Bft) 0,00 %
16.05.2015 18:00 21,3 C 41 % 1018,8 hPa 0,0 l/m 0,8 km/h (0 Bft) W-SW 1,00 h 0,000 mm 1,0 UV-I 467 W/m 7,4 C 21,3 C 3,0 km/h (1 Bft) 0,00 %
16.05.2015 19:00 20,0 C 43 % 1019,3 hPa 0,0 l/m 2,1 km/h (1 Bft) W-SW 1,00 h 0,000 mm 1,0 UV-I 163 W/m 6,8 C 20,0 C 4,0 km/h (1 Bft) 0,00 %
16.05.2015 20:00 17,6 C 52 % 1019,8 hPa 0,0 l/m 0,0 km/h (0 Bft) N 0,50 h 0,000 mm 0,0 UV-I 14 W/m 7,7 C 17,6 C 0,0 km/h (0 Bft) 0,00 %
16.05.2015 21:00 15,4 C 61 % 1020,7 hPa 0,0 l/m 0,2 km/h (0 Bft) N 0,00 h 0,000 mm 0,0 UV-I 0 W/m 7,9 C 15,4 C 2,0 km/h (1 Bft) 0,00 %
16.05.2015 22:00 14,5 C 63 % 1021,4 hPa 0,0 l/m 0,4 km/h (0 Bft) N 0,00 h 0,000 mm 0,0 UV-I 0 W/m 7,4 C 14,5 C 3,0 km/h (1 Bft) 0,00 %
16.05.2015 23:00 14,2 C 63 % 1021,7 hPa 0,0 l/m 0,9 km/h (0 Bft) O-SO 0,00 h 0,000 mm 0,0 UV-I 0 W/m 7,2 C 14,2 C 3,0 km/h (1 Bft) 0,00 %
17.05.2015 00:00 14,2 C 66 % 1022,0 hPa 0,0 l/m 0,7 km/h (0 Bft) N-NW 0,00 h 0,000 mm 0,0 UV-I 0 W/m 7,8 C 14,2 C 2,0 km/h (1 Bft) 0,00 %
17.05.2015 01:00 14,3 C 66 % 1021,9 hPa 0,0 l/m 1,4 km/h (1 Bft) W-SW 0,00 h 0,000 mm 0,0 UV-I 0 W/m 8,0 C 14,3 C 4,0 km/h (1 Bft) 0,00 %
17.05.2015 02:00 14,1 C 69 % 1022,0 hPa 0,0 l/m 2,5 km/h (1 Bft) S 0,00 h 0,000 mm 0,0 UV-I 0 W/m 8,3 C 13,8 C 5,0 km/h (1 Bft) 0,00 %
17.05.2015 03:00 14,0 C 68 % 1022,3 hPa 0,0 l/m 1,8 km/h (1 Bft) SW 0,00 h 0,000 mm 0,0 UV-I 0 W/m 8,2 C 14,0 C 4,0 km/h (1 Bft) 0,00 %
17.05.2015 04:00 13,9 C 66 % 1022,5 hPa 0,0 l/m 1,0 km/h (0 Bft) S-SW 0,00 h 0,000 mm 0,0 UV-I 0 W/m 7,7 C 13,9 C 2,0 km/h (1 Bft) 0,00 %
17.05.2015 05:00 13,6 C 66 % 1022,9 hPa 0,0 l/m 2,8 km/h (1 Bft) W-SW 0,00 h 0,000 mm 0,0 UV-I 1 W/m 7,3 C 13,6 C 5,0 km/h (1 Bft) 0,00 %
17.05.2015 06:00 13,3 C 68 % 1023,4 hPa 0,0 l/m 1,9 km/h (1 Bft) SW 0,00 h 0,000 mm 0,0 UV-I 23 W/m 7,5 C 13,3 C 5,0 km/h (1 Bft) 0,00 %
17.05.2015 07:00 13,2 C 71 % 1023,9 hPa 0,0 l/m 0,6 km/h (0 Bft) W-NW 0,00 h 0,000 mm 1,0 UV-I 57 W/m 8,1 C 13,2 C 1,0 km/h (0 Bft) 0,00 %
17.05.2015 08:00 13,4 C 75 % 1024,1 hPa 0,0 l/m 0,9 km/h (0 Bft) N 0,00 h 0,000 mm 1,0 UV-I 107 W/m 9,0 C 13,4 C 2,0 km/h (1 Bft) 0,00 %
17.05.2015 09:00 13,7 C 76 % 1024,3 hPa 0,0 l/m 0,1 km/h (0 Bft) N 0,00 h 0,000 mm 1,3 UV-I 171 W/m 9,4 C 13,7 C 1,0 km/h (0 Bft) 0,00 %
17.05.2015 10:00 13,6 C 74 % 1024,3 hPa 0,0 l/m 1,5 km/h (1 Bft) S-SW 0,00 h 0,000 mm 1,0 UV-I 141 W/m 9,1 C 13,6 C 3,0 km/h (1 Bft) 0,00 %
17.05.2015 11:00 14,3 C 70 % 1024,1 hPa 0,0 l/m 1,9 km/h (1 Bft) W-SW 0,00 h 0,000 mm 2,3 UV-I 313 W/m 8,8 C 14,3 C 4,0 km/h (1 Bft) 0,00 %
17.05.2015 12:00 15,5 C 64 % 1023,7 hPa 0,0 l/m 0,5 km/h (0 Bft) SW 0,00 h 0,000 mm 2,0 UV-I 258 W/m 8,6 C 15,5 C 2,0 km/h (1 Bft) 0,00 %
17.05.2015 13:00 16,6 C 61 % 1023,2 hPa 0,0 l/m 0,9 km/h (0 Bft) SO 0,25 h 0,000 mm 2,0 UV-I 342 W/m 9,1 C 16,6 C 3,0 km/h (1 Bft) 0,00 %
17.05.2015 14:00 15,5 C 69 % 1022,9 hPa 0,0 l/m 0,2 km/h (0 Bft) N 0,00 h 0,000 mm 1,0 UV-I 101 W/m 9,8 C 15,5 C 2,0 km/h (1 Bft) 0,00 %
17.05.2015 15:00 15,3 C 67 % 1022,6 hPa 0,0 l/m 1,2 km/h (1 Bft) W-SW 0,25 h 0,000 mm 1,7 UV-I 245 W/m 9,2 C 15,3 C 3,0 km/h (1 Bft) 0,00 %
17.05.2015 16:00 16,3 C 64 % 1022,1 hPa 0,0 l/m 0,0 km/h (0 Bft) N 0,00 h 0,000 mm 1,3 UV-I 201 W/m 9,4 C 16,3 C 0,0 km/h (0 Bft) 0,00 %
17.05.2015 17:00 16,5 C 63 % 1021,6 hPa 0,0 l/m 0,2 km/h (0 Bft) N 0,00 h 0,000 mm 1,0 UV-I 129 W/m 9,4 C 16,5 C 1,0 km/h (0 Bft) 0,00 %
17.05.2015 18:00 16,7 C 63 % 1021,3 hPa 0,0 l/m 0,0 km/h (0 Bft) N 0,75 h 0,000 mm 1,0 UV-I 305 W/m 9,6 C 16,7 C 0,0 km/h (0 Bft) 0,00 %
17.05.2015 19:00 17,5 C 60 % 1020,8 hPa 0,0 l/m 0,1 km/h (0 Bft) N 1,00 h 0,000 mm 1,0 UV-I 256 W/m 9,7 C 17,5 C 1,0 km/h (0 Bft) 0,00 %
17.05.2015 20:00 14,5 C 76 % 1021,3 hPa 0,0 l/m 0,0 km/h (0 Bft) N 0,25 h 0,000 mm 0,0 UV-I 11 W/m 10,2 C 14,5 C 0,0 km/h (0 Bft) 0,00 %
17.05.2015 21:00 11,6 C 88 % 1022,1 hPa 0,0 l/m 0,0 km/h (0 Bft) N 0,00 h 0,000 mm 0,0 UV-I 0 W/m 9,6 C 11,6 C 0,0 km/h (0 Bft) 0,00 %
17.05.2015 22:00 10,6 C 92 % 1022,2 hPa 0,0 l/m 0,0 km/h (0 Bft) N 0,00 h 0,000 mm 0,0 UV-I 0 W/m 9,3 C 10,6 C 0,0 km/h (0 Bft) 0,00 %
17.05.2015 23:00 9,9 C 95 % 1022,0 hPa 0,0 l/m 0,0 km/h (0 Bft) N 0,00 h 0,000 mm 0,0 UV-I 0 W/m 9,0 C 9,9 C 0,0 km/h (0 Bft) 0,00 %
Min-Datum _ 12.05.15 11.05.15 14.05.15 - 11.05.15 - - - - - 11.05.15 12.05.15 11.05.15 11.05.15
_ Min-Zeit 05:30 15:45 00:15 - 00:00 - - - - - 16:45 05:30 00:00 00:00
Minimum _ 5,7 C 23 % 1006,1 hPa - 0,0 km/h (0 Bft) - - - - - -0,9 C 5,7 C 0,0 km/h (0 Bft) 0,00 %
Max-Datum _ 12.05.15 14.05.15 11.05.15 14.05.15 15.05.15 - 12.05.15 11.05.15 11.05.15 13.05.15 13.05.15 12.05.15 15.05.15 11.05.15
_ Max-Zeit 16:30 05:30 05:30 00:30 18:15 - 14:00 00:00 11:45 13:15 08:45 16:30 04:45 00:00
Maximum _ 25,2 C 99 % 1029,7 hPa 15,9 l/m 12,2 km/h
O (2 Bft)
- 1,00 h 0,000 mm 6,0 UV-I 998 W/m 13,7 C 25,2 C 19,8 km/h
O-NO (3 Bft)
0,00 %
Durchschnitt _ 15,4 C 68 % 1017,5 hPa #24,9 l/m 1,7 km/h (1 Bft) O-SO #51:30 h #0,000 mm 2,2 UV-I 324 W/m 9,0 C 15,3 C 3,2 km/h (1 Bft) 0,00 %